NCAR-RAP Real-Time Weather Data

Output produced by METARs form (06 May 2021  16:22 UTC)
found at http://weather.rap.ucar.edu/surface/
 
KLOT 061555Z AUTO 32006KT 10SM BKN035 BKN060 OVC070 11/06 A3007 RMK AO2 T01140061
KLOT 061535Z AUTO 23003KT 10SM BKN037 BKN047 OVC060 11/06 A3007 RMK AO2 T01090059
KLOT 061515Z AUTO 19006G09KT 10SM BKN060 BKN070 OVC080 11/06 A3006 RMK AO2 T01070059
KLOT 061455Z AUTO 19012KT 10SM BKN060 OVC080 10/05 A3006 RMK AO2 T00990050
KLOT 061435Z AUTO 17013KT 10SM BKN060 OVC070 10/05 A3006 RMK AO2 T00950047
KLOT 061415Z AUTO 18010KT 10SM OVC070 10/05 A3007 RMK AO2 T00950051
KLOT 061355Z AUTO 17009KT 10SM OVC070 09/05 A3007 RMK AO2 T00900053
KLOT 061335Z AUTO 16011KT 10SM SCT050 BKN070 OVC090 09/05 A3008 RMK AO2 T00870048
KLOT 061315Z AUTO 15008KT 10SM BKN050 BKN060 OVC090 09/05 A3009 RMK AO2 T00870050
KLOT 061255Z AUTO 14006KT 10SM -RA SCT043 OVC048 08/05 A3010 RMK AO2 T00800045
KLOT 061235Z AUTO 00000KT 10SM RA OVC050 08/04 A3012 RMK AO2 T00830038
KLOT 061215Z AUTO 17004KT 10SM RA OVC050 09/04 A3011 RMK AO2 T00850039
KLOT 061155Z AUTO 19004KT 10SM -RA OVC055 09/03 A3011 RMK AO2 T00870032 10097 20081
KLOT 061135Z AUTO 18006KT 10SM -DZ OVC060 09/03 A3011 RMK AO2 T00850034
KLOT 061115Z AUTO 18003KT 10SM OVC070 08/03 A3010 RMK AO2 T00840032
KLOT 061055Z AUTO 15007KT 10SM OVC060 08/04 A3009 RMK AO2 T00810035
KLOT 061035Z AUTO 15008KT 10SM -DZ BKN060 OVC075 08/04 A3009 RMK AO2 T00830035
KLOT 061015Z AUTO 00000KT 10SM DZ OVC060 09/03 A3010 RMK AO2 T00880025
KLOT 060955Z AUTO 00000KT 10SM RA OVC060 09/02 A3011 RMK AO2 T00890022
KLOT 060935Z AUTO 15007KT 10SM OVC060 10/01 A3009 RMK AO2 T00950012
KLOT 060915Z AUTO 15010G16KT 10SM OVC060 10/01 A3010 RMK AO2 T00960009
KLOT 060855Z AUTO 18011G15KT 10SM BKN060 OVC070 10/01 A3010 RMK AO2 T00970008
KLOT 060835Z AUTO 16011KT 10SM OVC070 10/01 A3010 RMK AO2 T00950011
KLOT 060815Z AUTO 17013KT 10SM -DZ OVC065 10/01 A3010 RMK AO2 T00950012
KLOT 060755Z AUTO 17007KT 10SM SCT055 OVC075 10/01 A3011 RMK AO2 T00950008
KLOT 060735Z AUTO 16005KT 10SM BKN080 OVC090 09/01 A3011 RMK AO2 T00920010
KLOT 060715Z AUTO 16009KT 10SM BKN080 OVC090 09/01 A3011 RMK AO2 T00910010
KLOT 060655Z AUTO 17006KT 10SM OVC100 09/01 A3012 RMK AO2 T00900011
KLOT 060635Z AUTO 15006KT 10SM OVC100 09/01 A3012 RMK AO2 T00900007
KLOT 060615Z AUTO 15007KT 10SM SCT070 SCT095 OVC110 09/01 A3012 RMK AO2 T00900005
KLOT 060555Z AUTO 16007KT 10SM SCT070 OVC110 09/01 A3013 RMK AO2 T00870005 10111 20076 401700047
KLOT 060535Z AUTO 14005KT 10SM SCT070 OVC120 08/01 A3014 RMK AO2 T00810009
KLOT 060515Z AUTO 14004KT 10SM SCT070 BKN120 08/01 A3015 RMK AO2 T00800010
KLOT 060455Z AUTO 14004KT 10SM CLR 08/01 A3015 RMK AO2 T00770014
KLOT 060435Z AUTO 14004KT 10SM SCT120 08/01 A3016 RMK AO2 T00780011
KLOT 060415Z AUTO 14004KT 10SM CLR 08/01 A3016 RMK AO2 T00780010
KLOT 060355Z AUTO 14004KT 10SM CLR 08/00 A3017 RMK AO2 T00810003
KLOT 060335Z AUTO 11004KT 10SM CLR 08/00 A3017 RMK AO2 T00840001
KLOT 060315Z AUTO 10004KT 10SM CLR 08/00 A3016 RMK AO2 T00840004
KLOT 060255Z AUTO 10004KT 10SM CLR 08/01 A3016 RMK AO2 T00830010
KLOT 060235Z AUTO 10004KT 10SM CLR 08/01 A3016 RMK AO2 T00830011
KLOT 060215Z AUTO 09005KT 10SM CLR 08/01 A3015 RMK AO2 T00800008
KLOT 060155Z AUTO 09006KT 10SM CLR 08/00 A3015 RMK AO2 T00840001
KLOT 060135Z AUTO 09008KT 10SM CLR 09/00 A3015 RMK AO2 T00900000